Time;durP1;ratioP1;P1;durP2;ratioP2;P2;SDS_P1;SDS_P2;PMS_P1;PMS_P2;Temp;Humidity;BMP_temperature;BMP_pressure;BME280_temperature;BME280_humidity;BME280_pressure;Samples;Min_cycle;Max_cycle;Signal;HPM_P1;HPM_P2
2022/07/03 00:01:29;;;;;;;8.48;3.88;;;29.50;61.10;;;;;;5055583;28;20041;-85
2022/07/03 00:03:55;;;;;;;9.10;3.53;;;29.60;61.40;;;;;;5055425;28;20036;-85
2022/07/03 00:06:21;;;;;;;12.30;4.05;;;29.50;61.50;;;;;;5055152;28;20460;-85
2022/07/03 00:08:47;;;;;;;9.23;3.63;;;29.50;61.40;;;;;;5055488;28;20104;-86
2022/07/03 00:11:13;;;;;;;9.50;3.60;;;29.50;61.50;;;;;;5055209;28;20112;-85
2022/07/03 00:13:38;;;;;;;9.30;3.42;;;29.50;61.50;;;;;;5055128;28;20013;-85
2022/07/03 00:16:04;;;;;;;6.85;2.83;;;29.50;61.70;;;;;;5055229;28;20024;-85
2022/07/03 00:18:30;;;;;;;9.32;3.28;;;29.40;61.60;;;;;;5039508;28;20407;-85
2022/07/03 00:21:02;;;;;;;5.38;2.72;;;29.40;61.90;;;;;;5052752;28;20053;-84
2022/07/03 00:23:34;;;;;;;8.45;3.58;;;29.40;62.00;;;;;;5055189;28;20092;-82
2022/07/03 00:26:03;;;;;;;7.72;2.75;;;29.40;62.10;;;;;;5054776;28;20445;-84
2022/07/03 00:28:29;;;;;;;7.80;3.05;;;29.40;62.00;;;;;;5034979;28;20041;-84
2022/07/03 00:30:56;;;;;;;10.80;3.75;;;29.40;62.30;;;;;;5038380;28;20028;-83
2022/07/03 00:33:26;;;;;;;12.77;3.28;;;29.40;62.50;;;;;;5053129;28;20071;-83
2022/07/03 00:35:55;;;;;;;8.50;2.63;;;29.40;62.70;;;;;;5054794;28;20099;-83
2022/07/03 00:38:22;;;;;;;7.23;3.10;;;29.40;63.00;;;;;;5054896;28;20024;-83
2022/07/03 00:40:48;;;;;;;11.05;2.90;;;29.40;63.00;;;;;;5054578;28;20473;-84
2022/07/03 00:43:16;;;;;;;7.90;3.42;;;29.40;63.00;;;;;;5054806;28;20032;-84
2022/07/03 00:45:46;;;;;;;8.07;3.13;;;29.40;63.10;;;;;;5054638;28;20551;-84
2022/07/03 00:48:15;;;;;;;7.85;2.72;;;29.40;63.60;;;;;;5053092;28;20032;-84
2022/07/03 00:50:46;;;;;;;6.95;2.67;;;29.40;63.90;;;;;;5054285;28;20075;-84
2022/07/03 00:53:13;;;;;;;10.30;2.90;;;29.30;64.10;;;;;;5054138;28;20076;-84
2022/07/03 00:55:43;;;;;;;19.75;3.35;;;29.30;64.20;;;;;;5054370;28;20029;-83
2022/07/03 00:58:09;;;;;;;8.70;3.57;;;29.30;64.30;;;;;;5054289;28;20064;-84
2022/07/03 01:00:40;;;;;;;4.85;2.47;;;29.20;64.50;;;;;;5054314;28;20263;-84
2022/07/03 01:03:06;;;;;;;7.93;2.55;;;29.20;64.30;;;;;;5053990;28;20018;-83
2022/07/03 01:05:43;;;;;;;7.20;2.38;;;29.20;64.10;;;;;;5054178;28;20040;-84
2022/07/03 01:08:27;;;;;;;6.65;2.90;;;29.20;64.50;;;;;;5043778;28;20033;-84
2022/07/03 01:11:30;;;;;;;9.00;2.40;;;29.10;64.60;;;;;;5034359;28;20044;-84
2022/07/03 01:14:15;;;;;;;6.10;3.00;;;29.10;64.40;;;;;;5034160;28;20087;-84
2022/07/03 01:17:10;;;;;;;4.53;2.55;;;29.10;64.50;;;;;;5035471;28;20112;-83
2022/07/03 01:19:43;;;;;;;8.60;2.88;;;29.00;64.30;;;;;;5042898;28;20040;-84
2022/07/03 01:22:44;;;;;;;7.20;2.35;;;29.00;64.60;;;;;;5056277;28;20029;-84
2022/07/03 01:25:25;;;;;;;6.32;2.63;;;28.90;64.40;;;;;;5055614;28;20026;-84
2022/07/03 01:28:16;;;;;;;6.90;2.80;;;28.90;64.40;;;;;;5055532;28;20049;-84
2022/07/03 01:30:52;;;;;;;5.00;2.05;;;28.90;64.60;;;;;;5057139;28;20029;-83
2022/07/03 01:33:23;;;;;;;6.47;2.78;;;28.80;64.30;;;;;;5038860;28;20362;-84
2022/07/03 01:35:58;;;;;;;6.03;2.65;;;28.80;64.50;;;;;;5048517;28;20412;-84
2022/07/03 01:38:28;;;;;;;5.53;1.98;;;28.80;64.70;;;;;;5053401;28;20031;-83
2022/07/03 01:40:54;;;;;;;;;;;28.70;64.50;;;;;;5053889;28;20396;-83
2022/07/03 01:43:27;;;;;;;6.47;2.67;;;28.70;64.70;;;;;;5053326;28;19909;-82
2022/07/03 01:45:55;;;;;;;5.22;2.80;;;28.70;64.80;;;;;;5053421;28;20035;-82
2022/07/03 01:48:22;;;;;;;6.05;2.90;;;28.60;64.60;;;;;;5050208;28;20032;-82
2022/07/03 01:50:52;;;;;;;5.35;1.88;;;28.60;64.50;;;;;;5053212;28;20047;-84
2022/07/03 01:53:18;;;;;;;7.13;2.92;;;28.60;64.50;;;;;;5053055;28;20108;-83
2022/07/03 01:55:45;;;;;;;4.95;2.88;;;28.50;64.50;;;;;;5052653;28;20494;-83
2022/07/03 01:58:12;;;;;;;8.20;3.47;;;28.50;64.60;;;;;;5053350;28;20021;-83
2022/07/03 02:01:03;;;;;;;6.88;2.95;;;28.50;64.70;;;;;;5053491;28;20095;-83
2022/07/03 02:03:34;;;;;;;3.13;2.22;;;28.50;64.70;;;;;;5053021;28;20028;-84
2022/07/03 02:06:28;;;;;;;6.22;2.25;;;28.50;64.70;;;;;;5051570;28;20029;-84
2022/07/03 02:09:07;;;;;;;5.25;2.25;;;28.50;64.70;;;;;;5053196;28;20033;-84
2022/07/03 02:11:36;;;;;;;4.75;2.20;;;28.40;64.50;;;;;;5053422;28;20028;-84
2022/07/03 02:14:18;;;;;;;5.05;2.40;;;28.40;64.40;;;;;;5053177;28;20031;-84
2022/07/03 02:17:02;;;;;;;11.55;2.63;;;28.40;64.30;;;;;;5053158;28;20505;-84
2022/07/03 02:19:57;;;;;;;7.38;3.22;;;28.30;63.80;;;;;;5054759;28;20033;-83
2022/07/03 02:22:35;;;;;;;8.93;2.58;;;28.30;64.00;;;;;;5054980;28;20025;-84
2022/07/03 02:25:07;;;;;;;8.23;2.78;;;28.30;64.50;;;;;;5054803;28;20497;-85
2022/07/03 02:27:41;;;;;;;6.65;3.33;;;28.30;64.10;;;;;;5055774;28;20025;-84
2022/07/03 02:30:08;;;;;;;6.15;2.72;;;28.20;63.70;;;;;;5055735;28;20040;-84
2022/07/03 02:32:42;;;;;;;5.20;2.65;;;28.20;64.00;;;;;;5057186;28;20048;-83
2022/07/03 02:35:11;;;;;;;5.63;2.47;;;28.20;64.00;;;;;;5056746;28;20082;-84
2022/07/03 02:37:59;;;;;;;5.23;2.63;;;28.30;64.00;;;;;;5056967;28;20381;-84
2022/07/03 02:40:30;;;;;;;4.93;2.33;;;28.30;64.70;;;;;;5057085;28;20354;-84
2022/07/03 02:43:02;;;;;;;6.57;3.13;;;28.30;64.30;;;;;;5056952;28;20060;-84
2022/07/03 02:45:38;;;;;;;5.22;2.63;;;28.20;64.40;;;;;;5056727;28;20025;-84
2022/07/03 02:48:33;;;;;;;6.18;2.63;;;28.30;64.50;;;;;;5056651;28;20112;-84
2022/07/03 02:51:05;;;;;;;6.40;2.25;;;28.30;64.40;;;;;;5056520;28;20017;-84
2022/07/03 02:53:41;;;;;;;4.40;2.97;;;28.20;64.40;;;;;;5039903;28;20045;-84
2022/07/03 02:56:34;;;;;;;4.25;2.63;;;28.20;64.30;;;;;;5036304;28;20022;-84
2022/07/03 02:59:24;;;;;;;4.13;2.30;;;28.20;64.60;;;;;;5036490;28;20493;-86
2022/07/03 03:02:02;;;;;;;3.90;2.47;;;28.10;64.50;;;;;;5036399;28;20045;-86
2022/07/03 03:04:32;;;;;;;5.13;2.08;;;28.10;64.90;;;;;;5035269;28;20033;-82
2022/07/03 03:07:13;;;;;;;3.60;2.42;;;28.10;65.20;;;;;;5036670;28;20473;-83
2022/07/03 03:09:43;;;;;;;4.95;2.05;;;28.10;65.10;;;;;;5036639;28;20407;-83
2022/07/03 03:12:10;;;;;;;4.20;2.30;;;28.10;65.00;;;;;;5036466;28;20056;-82
2022/07/03 03:14:40;;;;;;;6.00;2.42;;;28.00;64.90;;;;;;5036106;28;20029;-83
2022/07/03 03:17:07;;;;;;;4.97;1.98;;;28.00;64.70;;;;;;5036361;28;20049;-81
2022/07/03 03:19:40;;;;;;;4.70;2.38;;;28.00;64.40;;;;;;5036302;28;20500;-81
2022/07/03 03:22:28;;;;;;;5.35;2.88;;;28.00;64.20;;;;;;5044008;28;20036;-85
2022/07/03 03:24:54;;;;;;;4.38;2.17;;;27.90;64.30;;;;;;5048449;28;20082;-84
2022/07/03 03:27:20;;;;;;;3.67;2.00;;;27.90;64.30;;;;;;5056162;28;20060;-85
2022/07/03 03:29:47;;;;;;;7.05;2.70;;;27.90;64.50;;;;;;5055986;28;20057;-84
2022/07/03 03:32:14;;;;;;;3.65;2.25;;;27.80;64.50;;;;;;5054034;28;20067;-85
2022/07/03 03:34:41;;;;;;;3.75;2.13;;;27.80;64.50;;;;;;5056010;28;20033;-86
2022/07/03 03:37:07;;;;;;;6.65;2.30;;;27.80;64.40;;;;;;5055819;28;20108;-84
2022/07/03 03:39:33;;;;;;;6.35;1.90;;;27.70;64.40;;;;;;5053128;28;20025;-85
2022/07/03 03:42:00;;;;;;;2.78;1.70;;;27.70;64.50;;;;;;5035685;28;20049;-85
2022/07/03 03:44:26;;;;;;;5.35;1.90;;;27.70;64.70;;;;;;5035743;28;20025;-85
2022/07/03 03:46:52;;;;;;;3.25;1.92;;;27.60;64.90;;;;;;5035731;28;20030;-85
2022/07/03 03:49:18;;;;;;;1.77;1.45;;;27.60;65.00;;;;;;5035799;28;20068;-85
2022/07/03 03:51:44;;;;;;;2.10;1.45;;;27.50;65.00;;;;;;5035465;28;20060;-85
2022/07/03 03:54:10;;;;;;;5.75;1.85;;;27.50;64.90;;;;;;5041620;28;20047;-85
2022/07/03 03:56:35;;;;;;;5.68;1.98;;;27.40;64.80;;;;;;5054880;28;20063;-85
2022/07/03 03:59:01;;;;;;;3.88;1.42;;;27.40;65.00;;;;;;5054678;28;20033;-84
2022/07/03 04:01:36;;;;;;;4.63;1.88;;;27.30;65.10;;;;;;5055109;28;20102;-84
2022/07/03 04:04:02;;;;;;;3.08;1.60;;;27.30;65.30;;;;;;5046051;28;20097;-84
2022/07/03 04:06:28;;;;;;;2.85;1.40;;;27.20;65.30;;;;;;5053575;28;20491;-84
2022/07/03 04:08:53;;;;;;;5.55;1.63;;;27.30;65.30;;;;;;5054030;28;20029;-83
2022/07/03 04:11:19;;;;;;;6.90;2.03;;;27.30;65.20;;;;;;5058097;28;20025;-83
2022/07/03 04:13:45;;;;;;;3.95;1.70;;;27.40;65.10;;;;;;5057198;28;20041;-83
2022/07/03 04:16:12;;;;;;;4.65;1.67;;;27.40;65.10;;;;;;5055140;28;20056;-83
2022/07/03 04:18:38;;;;;;;5.00;2.03;;;27.40;65.00;;;;;;5054478;28;20051;-83
2022/07/03 04:21:04;;;;;;;1.83;1.30;;;27.40;65.30;;;;;;5054937;28;20063;-83
2022/07/03 04:23:30;;;;;;;4.00;2.22;;;27.40;65.20;;;;;;5055277;28;20052;-83
2022/07/03 04:26:02;;;;;;;2.80;1.73;;;27.40;65.20;;;;;;5054218;28;20106;-83
2022/07/03 04:28:28;;;;;;;3.45;1.50;;;27.40;65.00;;;;;;5054798;28;20103;-83
2022/07/03 04:30:53;;;;;;;5.55;2.20;;;27.50;64.70;;;;;;5055016;28;20040;-83
2022/07/03 04:33:19;;;;;;;7.70;2.00;;;27.40;64.50;;;;;;5054464;28;20552;-83
2022/07/03 04:35:44;;;;;;;5.95;1.83;;;27.30;64.10;;;;;;5054594;28;20115;-85
2022/07/03 04:38:11;;;;;;;3.30;1.63;;;27.20;64.50;;;;;;5054525;28;20036;-87
2022/07/03 04:40:36;;;;;;;4.10;1.80;;;27.10;64.30;;;;;;5054318;28;20458;-85
2022/07/03 04:43:02;;;;;;;3.88;1.50;;;27.20;64.50;;;;;;5054230;28;20029;-84
2022/07/03 04:45:28;;;;;;;2.63;1.30;;;27.20;64.60;;;;;;5054336;28;20036;-85
2022/07/03 04:47:53;;;;;;;4.65;1.85;;;27.20;64.50;;;;;;5054376;28;20029;-86
2022/07/03 04:50:19;;;;;;;2.38;1.40;;;27.10;63.70;;;;;;5054548;28;20032;-86
2022/07/03 04:52:44;;;;;;;3.35;1.42;;;27.10;64.30;;;;;;5055072;28;20060;-86
2022/07/03 04:55:11;;;;;;;4.15;1.10;;;27.10;64.20;;;;;;5053918;28;20060;-83
2022/07/03 04:57:37;;;;;;;5.25;2.47;;;27.10;64.20;;;;;;5054539;28;20055;-83
2022/07/03 05:00:04;;;;;;;5.22;1.63;;;27.10;64.30;;;;;;5052885;28;20021;-83
2022/07/03 05:02:30;;;;;;;1.27;0.80;;;27.10;64.20;;;;;;5041808;28;20155;-84
2022/07/03 05:04:55;;;;;;;1.52;1.20;;;27.00;64.10;;;;;;5053126;28;20402;-85
2022/07/03 05:07:21;;;;;;;2.47;1.10;;;27.10;64.30;;;;;;5053215;28;20026;-86
2022/07/03 05:09:46;;;;;;;5.20;1.40;;;27.10;64.50;;;;;;5035814;28;20406;-83
2022/07/03 05:12:12;;;;;;;1.88;1.23;;;27.20;64.30;;;;;;5052641;28;20027;-83
2022/07/03 05:14:38;;;;;;;2.33;1.08;;;27.20;64.20;;;;;;5054166;28;20061;-83
2022/07/03 05:17:03;;;;;;;4.05;1.40;;;27.20;64.20;;;;;;5053854;28;20044;-82
2022/07/03 05:19:29;;;;;;;1.83;1.30;;;27.30;64.50;;;;;;5053405;28;20560;-82
2022/07/03 05:21:55;;;;;;;5.15;1.88;;;27.30;64.30;;;;;;5043189;28;20029;-83
2022/07/03 05:24:21;;;;;;;2.15;1.02;;;27.30;63.90;;;;;;5069657;28;20020;-82
2022/07/03 05:26:46;;;;;;;5.20;1.20;;;27.30;64.10;;;;;;5069168;28;20075;-83
2022/07/03 05:29:12;;;;;;;3.08;1.63;;;27.30;64.30;;;;;;5053610;28;20056;-83
2022/07/03 05:31:37;;;;;;;2.90;1.27;;;27.40;64.20;;;;;;5051679;28;20037;-82
2022/07/03 05:34:03;;;;;;;2.17;1.58;;;27.40;64.30;;;;;;5050018;28;20029;-83
2022/07/03 05:36:29;;;;;;;3.53;1.48;;;27.50;64.70;;;;;;5053690;28;20377;-83
2022/07/03 05:41:39;;;;;;;2.95;1.58;;;27.50;64.20;;;;;;5058726;28;20044;-83
2022/07/03 05:44:04;;;;;;;4.78;1.90;;;27.50;64.10;;;;;;5031991;28;20025;-83
2022/07/03 05:46:30;;;;;;;3.45;1.77;;;27.50;63.80;;;;;;5033307;28;20363;-82
2022/07/03 05:48:56;;;;;;;4.65;1.60;;;27.60;63.70;;;;;;5033689;28;20037;-82
2022/07/03 05:51:21;;;;;;;4.18;1.90;;;27.60;63.70;;;;;;5033526;28;20079;-83
2022/07/03 05:53:47;;;;;;;1.60;1.30;;;27.60;63.70;;;;;;5032901;28;20068;-82
2022/07/03 05:56:13;;;;;;;2.15;1.60;;;27.60;63.60;;;;;;5033457;28;20026;-82
2022/07/03 05:58:38;;;;;;;3.30;1.25;;;27.60;63.70;;;;;;5033230;28;20435;-82
2022/07/03 06:01:04;;;;;;;1.98;1.38;;;27.70;63.80;;;;;;5033122;28;20045;-82
2022/07/03 06:03:30;;;;;;;2.30;1.60;;;27.70;64.00;;;;;;5049628;28;20052;-82
2022/07/03 06:05:55;;;;;;;3.25;1.60;;;27.80;63.80;;;;;;5053234;28;20049;-82
2022/07/03 06:08:21;;;;;;;2.38;1.40;;;27.80;63.50;;;;;;5053313;28;20029;-82
2022/07/03 06:10:47;;;;;;;3.58;1.60;;;27.90;63.80;;;;;;5053185;28;20021;-82
2022/07/03 06:13:12;;;;;;;3.08;1.38;;;27.90;64.30;;;;;;5052998;28;20083;-82
2022/07/03 06:15:38;;;;;;;2.42;1.25;;;27.90;63.90;;;;;;5052706;28;20082;-83
2022/07/03 06:18:04;;;;;;;4.70;1.40;;;28.00;64.00;;;;;;5053732;28;20037;-82
2022/07/03 06:20:29;;;;;;;4.95;1.75;;;28.00;64.30;;;;;;5053423;28;20025;-82
2022/07/03 06:22:55;;;;;;;3.55;1.80;;;28.00;64.60;;;;;;5053796;28;20064;-82
2022/07/03 06:25:21;;;;;;;3.47;1.50;;;28.10;64.10;;;;;;5053964;28;20021;-83
2022/07/03 06:27:46;;;;;;;4.55;1.55;;;28.00;63.80;;;;;;5045861;28;20026;-82
2022/07/03 06:30:12;;;;;;;4.38;1.60;;;28.10;63.80;;;;;;5032757;28;20029;-83
2022/07/03 06:32:38;;;;;;;5.07;1.58;;;28.10;63.80;;;;;;5041548;28;20032;-82
2022/07/03 06:35:05;;;;;;;2.30;1.38;;;28.20;63.50;;;;;;5051508;28;20070;-82
2022/07/03 06:37:31;;;;;;;3.33;1.25;;;28.20;63.00;;;;;;5052274;28;20087;-82
2022/07/03 06:39:56;;;;;;;2.00;1.40;;;28.20;62.80;;;;;;5052371;28;20017;-83
2022/07/03 06:42:22;;;;;;;6.60;1.23;;;28.30;62.40;;;;;;5052299;28;20025;-82
2022/07/03 06:44:47;;;;;;;2.20;1.30;;;28.30;61.50;;;;;;5052251;28;20029;-82
2022/07/03 06:47:13;;;;;;;2.75;1.42;;;28.30;61.40;;;;;;5052097;28;20104;-82
2022/07/03 06:49:39;;;;;;;2.08;1.20;;;28.30;61.10;;;;;;5049929;28;20036;-82
2022/07/03 06:52:04;;;;;;;4.93;1.30;;;28.40;61.00;;;;;;5052690;28;20017;-82
2022/07/03 06:54:30;;;;;;;1.98;1.00;;;28.40;60.90;;;;;;5071350;28;20033;-82
2022/07/03 06:56:56;;;;;;;2.97;0.90;;;28.40;60.70;;;;;;5060989;28;20029;-82
2022/07/03 06:59:21;;;;;;;1.83;0.98;;;28.50;60.60;;;;;;5051108;28;20068;-82
2022/07/03 07:01:47;;;;;;;1.73;1.10;;;28.50;60.50;;;;;;5052519;28;20036;-82
2022/07/03 07:04:13;;;;;;;1.65;1.10;;;28.50;60.30;;;;;;5053727;28;20025;-82
2022/07/03 07:06:38;;;;;;;3.88;1.30;;;28.60;60.10;;;;;;5042413;28;20123;-82
2022/07/03 07:09:04;;;;;;;2.63;1.38;;;28.60;60.00;;;;;;5054146;28;20090;-83
2022/07/03 07:11:30;;;;;;;4.82;1.45;;;28.70;60.00;;;;;;5051981;28;20366;-82
2022/07/03 07:13:56;;;;;;;3.65;1.15;;;28.70;59.80;;;;;;5074742;28;20036;-82
2022/07/03 07:16:22;;;;;;;1.92;1.05;;;28.70;59.30;;;;;;5071635;28;20056;-83
2022/07/03 07:18:47;;;;;;;33.78;28.52;;;28.70;59.40;;;;;;5051471;28;20040;-82
2022/07/03 07:21:13;;;;;;;12.93;10.88;;;28.80;59.20;;;;;;5075356;28;21107;-81
2022/07/03 07:23:39;;;;;;;8.63;7.55;;;28.80;59.40;;;;;;5066618;28;20071;-83
2022/07/03 07:26:05;;;;;;;4.25;2.78;;;28.80;57.90;;;;;;5037205;28;20398;-83
2022/07/03 07:28:33;;;;;;;4.50;1.60;;;28.90;58.20;;;;;;5035335;28;20083;-82
2022/07/03 07:30:59;;;;;;;4.43;1.20;;;29.00;58.10;;;;;;5037462;28;20485;-83
2022/07/03 07:33:24;;;;;;;3.72;1.38;;;29.00;57.90;;;;;;5048051;28;20036;-83
2022/07/03 07:35:50;;;;;;;2.28;1.40;;;29.00;58.00;;;;;;5047268;22;20057;-85
2022/07/03 07:38:17;;;;;;;2.72;1.17;;;29.10;58.10;;;;;;5015263;28;20037;-85
2022/07/03 07:40:42;;;;;;;4.78;1.10;;;29.10;57.90;;;;;;5015292;28;20036;-85
2022/07/03 07:43:08;;;;;;;5.07;1.58;;;29.10;57.60;;;;;;5015336;28;20022;-83
2022/07/03 07:45:34;;;;;;;2.13;1.20;;;29.20;57.40;;;;;;5014690;28;20025;-83
2022/07/03 07:48:00;;;;;;;3.50;1.30;;;29.30;57.30;;;;;;5014611;28;20025;-77
2022/07/03 07:50:26;;;;;;;8.32;1.55;;;29.30;57.30;;;;;;5015895;28;20356;-77
2022/07/03 07:52:52;;;;;;;2.78;1.50;;;29.30;57.30;;;;;;5028326;28;20024;-77
2022/07/03 07:55:18;;;;;;;2.05;1.20;;;29.40;57.30;;;;;;5014564;28;20089;-78
2022/07/03 07:57:45;;;;;;;3.55;1.20;;;29.40;57.20;;;;;;5017331;28;20046;-78
2022/07/03 08:00:21;;;;;;;2.72;1.10;;;29.50;57.50;;;;;;5016251;28;20058;-77
2022/07/03 08:05:36;;;;;;;3.22;1.35;;;29.60;56.80;;;;;;5035424;28;20169;-77
2022/07/03 08:08:12;;;;;;;2.35;1.40;;;29.70;56.20;;;;;;5027056;28;20080;-77
2022/07/03 08:10:48;;;;;;;2.90;1.05;;;29.70;56.10;;;;;;5023480;28;20029;-77
2022/07/03 08:13:15;;;;;;;2.83;1.40;;;29.70;55.50;;;;;;5020197;28;20037;-77
2022/07/03 08:15:42;;;;;;;2.35;1.20;;;29.80;55.70;;;;;;5014666;28;20022;-77
2022/07/03 08:18:08;;;;;;;4.00;1.10;;;29.90;55.70;;;;;;5013584;28;20048;-77
2022/07/03 08:20:35;;;;;;;4.60;1.50;;;29.90;55.40;;;;;;5014749;28;20026;-77
2022/07/03 08:23:01;;;;;;;3.50;1.42;;;29.90;55.60;;;;;;5015840;28;20084;-76
2022/07/03 08:25:28;;;;;;;5.22;1.38;;;30.00;55.80;;;;;;5014464;28;20025;-76
2022/07/03 08:27:53;;;;;;;2.00;1.20;;;30.10;55.90;;;;;;5014697;28;20029;-75
2022/07/03 08:30:19;;;;;;;5.05;1.10;;;30.10;56.00;;;;;;5014719;28;20034;-75
2022/07/03 08:32:47;;;;;;;4.45;1.40;;;30.20;55.70;;;;;;5026033;28;20036;-75
2022/07/03 08:35:13;;;;;;;5.57;1.45;;;30.30;55.80;;;;;;5033939;28;20132;-75
2022/07/03 08:37:40;;;;;;;3.72;1.40;;;30.30;55.70;;;;;;5030682;28;20033;-76
2022/07/03 08:40:08;;;;;;;3.13;1.58;;;30.30;55.60;;;;;;5036621;28;20025;-77
2022/07/03 08:42:37;;;;;;;3.05;1.15;;;30.40;55.70;;;;;;5047873;28;20478;-76
2022/07/03 08:45:07;;;;;;;3.37;1.60;;;30.40;55.60;;;;;;5024369;28;20022;-76
2022/07/03 08:47:33;;;;;;;3.42;1.55;;;30.50;56.00;;;;;;5051105;28;20047;-76
2022/07/03 08:50:01;;;;;;;1.92;1.05;;;30.60;56.00;;;;;;5049392;28;20389;-84
2022/07/03 08:52:28;;;;;;;3.22;1.48;;;30.60;55.40;;;;;;5034254;28;20033;-84
2022/07/03 08:54:53;;;;;;;3.78;1.00;;;30.70;55.10;;;;;;5034454;28;20371;-76
2022/07/03 08:57:19;;;;;;;2.55;1.40;;;30.60;54.80;;;;;;5034148;28;20080;-83
2022/07/03 09:00:00;;;;;;;1.73;1.23;;;30.70;55.20;;;;;;5034337;28;20057;-85
2022/07/03 09:02:27;;;;;;;1.95;1.25;;;30.80;56.50;;;;;;5028899;28;20153;-84
2022/07/03 09:04:53;;;;;;;2.35;1.13;;;30.80;56.50;;;;;;5032579;28;20032;-75
2022/07/03 09:07:20;;;;;;;1.45;1.10;;;30.80;56.90;;;;;;5054149;28;20017;-83
2022/07/03 09:09:46;;;;;;;3.13;1.05;;;30.90;57.60;;;;;;5042640;28;20041;-83
2022/07/03 09:12:13;;;;;;;1.95;1.02;;;31.00;57.10;;;;;;5034451;28;20032;-83
2022/07/03 09:14:39;;;;;;;2.13;1.20;;;31.00;57.00;;;;;;5034276;28;20064;-84
2022/07/03 09:17:07;;;;;;;4.75;1.25;;;31.10;57.50;;;;;;5034137;28;20060;-84
2022/07/03 09:19:42;;;;;;;2.10;0.82;;;31.20;57.80;;;;;;5029386;28;20017;-76
2022/07/03 09:22:25;;;;;;;1.40;1.00;;;31.30;57.60;;;;;;5023201;28;20037;-76
2022/07/03 09:25:08;;;;;;;2.10;0.88;;;31.30;57.30;;;;;;5023508;28;20076;-77
2022/07/03 09:27:38;;;;;;;1.75;1.10;;;31.30;57.20;;;;;;5045063;28;20098;-77
2022/07/03 09:30:04;;;;;;;4.20;1.50;;;31.40;57.00;;;;;;5033059;28;20034;-77
2022/07/03 09:32:43;;;;;;;4.07;1.27;;;31.50;56.70;;;;;;5030737;28;20034;-77
2022/07/03 09:35:23;;;;;;;3.53;1.73;;;31.50;56.70;;;;;;5014579;28;20050;-77
2022/07/03 09:37:59;;;;;;;;;;;31.60;55.70;;;;;;5032232;28;20037;-77
2022/07/03 09:40:47;;;;;;;1.83;1.00;;;31.60;55.90;;;;;;5033154;28;19936;-77
2022/07/03 09:43:13;;;;;;;2.58;1.25;;;31.70;55.50;;;;;;5031445;28;20104;-76
2022/07/03 09:45:58;;;;;;;1.60;1.10;;;31.70;55.30;;;;;;5024510;28;20101;-77
2022/07/03 09:48:24;;;;;;;2.95;0.90;;;31.80;54.40;;;;;;5046371;28;20103;-77
2022/07/03 09:51:25;;;;;;;1.40;1.10;;;31.80;54.40;;;;;;5049599;28;20025;-77
2022/07/03 09:53:51;;;;;;;2.00;1.00;;;32.00;54.00;;;;;;5032756;28;20052;-77
2022/07/03 09:56:19;;;;;;;2.58;1.10;;;32.00;54.10;;;;;;5033066;28;20057;-77
2022/07/03 09:59:04;;;;;;;3.97;1.17;;;32.10;54.00;;;;;;5032798;28;20474;-77
2022/07/03 10:01:30;;;;;;;2.78;1.10;;;32.20;53.20;;;;;;5032419;28;20025;-77
2022/07/03 10:04:15;;;;;;;2.60;1.08;;;32.30;53.40;;;;;;5023109;28;20026;-77
2022/07/03 10:06:48;;;;;;;1.65;1.10;;;32.30;52.60;;;;;;5020514;28;20463;-77
2022/07/03 10:09:28;;;;;;;3.53;1.23;;;32.40;51.80;;;;;;5024119;28;20040;-77
2022/07/03 10:11:56;;;;;;;2.92;1.08;;;32.50;52.20;;;;;;5045909;28;20478;-77
2022/07/03 10:14:30;;;;;;;2.67;1.20;;;32.50;52.40;;;;;;5028480;28;20033;-76
2022/07/03 10:16:57;;;;;;;8.18;1.55;;;32.60;52.50;;;;;;5022587;28;20026;-77
2022/07/03 10:19:26;;;;;;;2.67;1.20;;;32.70;52.70;;;;;;5024415;28;20037;-77
2022/07/03 10:21:54;;;;;;;2.00;1.03;;;32.80;52.80;;;;;;5021199;28;20499;-77
2022/07/03 10:24:26;;;;;;;4.75;1.13;;;32.90;52.80;;;;;;5021066;28;20257;-76
2022/07/03 10:26:52;;;;;;;2.50;1.45;;;33.00;52.60;;;;;;5018584;28;20037;-77
2022/07/03 10:29:21;;;;;;;2.70;1.10;;;33.10;52.70;;;;;;5022520;28;20035;-77
2022/07/03 10:31:47;;;;;;;2.60;1.10;;;33.20;52.80;;;;;;5025864;28;20109;-77
2022/07/03 10:34:24;;;;;;;4.25;1.30;;;33.30;52.70;;;;;;5032935;28;20108;-77
2022/07/03 10:36:58;;;;;;;2.85;1.05;;;33.40;50.20;;;;;;5033017;28;20091;-77
2022/07/03 10:39:28;;;;;;;2.90;1.40;;;33.50;51.70;;;;;;5034142;28;20065;-77
2022/07/03 10:45:06;;;;;;;2.00;1.25;;;33.70;51.60;;;;;;5053891;28;20036;-77
2022/07/03 10:47:44;;;;;;;2.70;1.38;;;33.70;51.30;;;;;;5046422;28;20067;-77
2022/07/03 10:50:23;;;;;;;3.00;1.30;;;33.90;51.50;;;;;;5034197;28;20026;-77
2022/07/03 10:52:54;;;;;;;;;;;34.00;51.50;;;;;;5034891;28;20108;-77
2022/07/03 10:55:21;;;;;;;3.28;1.17;;;34.00;50.90;;;;;;5049581;28;19905;-76
2022/07/03 10:58:06;;;;;;;4.53;1.30;;;34.10;51.20;;;;;;5027875;28;20564;-76
2022/07/03 11:00:53;;;;;;;5.65;1.15;;;34.30;50.80;;;;;;5054669;28;20124;-77
2022/07/03 11:03:57;;;;;;;1.83;0.98;;;34.30;51.10;;;;;;5038046;28;20105;-77
2022/07/03 11:07:05;;;;;;;3.53;1.10;;;34.40;50.90;;;;;;5036362;28;20033;-77
2022/07/03 11:09:31;;;;;;;4.80;1.42;;;34.60;51.30;;;;;;5030645;28;20043;-75
2022/07/03 11:11:57;;;;;;;4.18;1.30;;;34.80;51.10;;;;;;5036448;28;20390;-76
2022/07/03 11:14:25;;;;;;;3.47;1.45;;;34.90;51.10;;;;;;5036100;28;20021;-75
2022/07/03 11:17:18;;;;;;;3.30;1.63;;;35.00;51.60;;;;;;5036027;28;20033;-76
2022/07/03 11:20:23;;;;;;;3.00;1.27;;;35.20;52.00;;;;;;5036260;28;20025;-76
2022/07/03 11:22:55;;;;;;;3.30;1.65;;;35.40;52.00;;;;;;5035993;28;20071;-76
2022/07/03 11:25:23;;;;;;;3.67;1.42;;;35.50;52.00;;;;;;5027620;28;20060;-76
2022/07/03 11:27:49;;;;;;;4.82;1.80;;;35.70;52.40;;;;;;5035509;28;20033;-76
2022/07/03 11:30:15;;;;;;;4.90;1.50;;;35.80;51.50;;;;;;5035334;28;20031;-77
2022/07/03 11:32:49;;;;;;;4.82;1.27;;;36.00;51.40;;;;;;5034996;28;20474;-77
2022/07/03 11:35:54;;;;;;;3.13;1.67;;;36.20;51.00;;;;;;5035653;28;20501;-77
2022/07/03 11:38:27;;;;;;;2.20;1.15;;;36.60;50.30;;;;;;5035386;28;20041;-76
2022/07/03 11:40:56;;;;;;;2.88;1.50;;;37.00;50.30;;;;;;5033853;28;20029;-77
2022/07/03 11:43:22;;;;;;;2.85;1.58;;;37.40;49.20;;;;;;5023704;28;20103;-77
2022/07/03 11:45:49;;;;;;;3.05;1.58;;;37.70;48.80;;;;;;5055506;28;20489;-77
2022/07/03 11:48:20;;;;;;;3.05;1.48;;;38.00;47.90;;;;;;5048339;28;20478;-77
2022/07/03 11:50:47;;;;;;;6.63;1.30;;;38.30;47.50;;;;;;5034475;28;20032;-77
2022/07/03 11:53:20;;;;;;;3.08;1.50;;;38.60;47.40;;;;;;5035510;28;20030;-77
2022/07/03 11:55:53;;;;;;;3.70;1.20;;;38.80;46.90;;;;;;5035690;28;20030;-77
2022/07/03 11:58:19;;;;;;;1.83;1.23;;;39.10;46.50;;;;;;5031535;28;20033;-77
2022/07/03 12:00:45;;;;;;;4.25;1.52;;;39.20;46.20;;;;;;5044916;28;20396;-77
2022/07/03 12:03:15;;;;;;;2.95;1.30;;;39.40;45.70;;;;;;5035819;28;20104;-77
2022/07/03 12:05:58;;;;;;;1.85;1.10;;;39.50;44.00;;;;;;5051691;28;20027;-77
2022/07/03 12:08:33;;;;;;;4.22;1.35;;;39.70;43.80;;;;;;5055022;28;20075;-77
2022/07/03 12:11:07;;;;;;;3.35;1.27;;;39.80;43.90;;;;;;5055374;28;20120;-77
2022/07/03 12:13:33;;;;;;;5.45;1.30;;;39.80;43.60;;;;;;5055092;28;20033;-77
2022/07/03 12:16:10;;;;;;;2.45;1.13;;;39.90;44.00;;;;;;5048518;28;20024;-77
2022/07/03 12:18:44;;;;;;;2.00;1.20;;;40.00;43.10;;;;;;5034983;28;20033;-77
2022/07/03 12:21:10;;;;;;;2.03;1.42;;;40.00;43.40;;;;;;5034831;28;20508;-77
2022/07/03 12:23:47;;;;;;;2.35;1.20;;;40.20;43.40;;;;;;5033740;28;20160;-77
2022/07/03 12:26:14;;;;;;;6.15;1.80;;;40.30;41.50;;;;;;5032917;28;20029;-77
2022/07/03 12:28:40;;;;;;;5.68;1.67;;;40.40;42.60;;;;;;5034176;28;20037;-77
2022/07/03 12:31:07;;;;;;;3.75;1.20;;;40.40;42.50;;;;;;5053144;28;20028;-78
2022/07/03 12:33:35;;;;;;;2.92;1.42;;;40.50;42.40;;;;;;5035050;28;20116;-77
2022/07/03 12:36:05;;;;;;;2.40;1.70;;;40.60;43.20;;;;;;5034785;28;20124;-78
2022/07/03 12:38:31;;;;;;;5.57;2.08;;;40.70;41.50;;;;;;5032806;28;20037;-85
2022/07/03 12:41:07;;;;;;;3.50;1.10;;;40.70;41.60;;;;;;5035486;28;20023;-85
2022/07/03 12:43:37;;;;;;;2.45;1.08;;;40.80;41.40;;;;;;5054379;28;20028;-78
2022/07/03 12:46:03;;;;;;;6.72;1.65;;;40.80;41.30;;;;;;5040975;28;20021;-78
2022/07/03 12:48:29;;;;;;;2.17;1.25;;;41.00;41.30;;;;;;5034740;28;20421;-84
2022/07/03 12:50:55;;;;;;;4.00;1.80;;;41.20;41.20;;;;;;5036753;28;20440;-86
2022/07/03 12:53:34;;;;;;;2.80;1.50;;;41.30;40.60;;;;;;5044564;28;20060;-78
2022/07/03 12:56:03;;;;;;;;;;;41.30;40.70;;;;;;5034968;28;20041;-78
2022/07/03 13:01:30;;;;;;;3.30;1.38;;;41.40;40.40;;;;;;5034075;28;20091;-85
2022/07/03 13:03:56;;;;;;;3.80;1.50;;;41.50;39.00;;;;;;5034176;28;20026;-84
2022/07/03 13:06:23;;;;;;;4.45;1.40;;;41.50;40.10;;;;;;5034318;28;20071;-85
2022/07/03 13:08:53;;;;;;;5.20;1.67;;;41.50;39.90;;;;;;5034332;28;20057;-84
2022/07/03 13:11:39;;;;;;;2.80;1.35;;;41.50;40.30;;;;;;5034255;28;20033;-85
2022/07/03 13:14:10;;;;;;;3.60;1.38;;;41.60;39.50;;;;;;5032520;28;20124;-85
2022/07/03 13:16:46;;;;;;;211.65;189.82;;;41.60;39.90;;;;;;5029440;28;20025;-83